createdAt,value
2017-05-30T00:00:16.423Z,71.88
2017-05-30T00:00:56.954Z,71.68
2017-05-30T00:01:37.566Z,71.88
2017-05-30T00:02:18.107Z,71.88
2017-05-30T00:02:58.643Z,71.58
2017-05-30T00:03:39.174Z,71.97
2017-05-30T00:04:21.818Z,72.06
2017-05-30T00:05:02.445Z,71.58
2017-05-30T00:05:43.045Z,71.68
2017-05-30T00:06:25.589Z,71.68
2017-05-30T00:25:14.547Z,71.88
2017-05-30T00:25:55.208Z,72.06
2017-05-30T00:26:35.772Z,71.97
2017-05-30T00:27:16.365Z,71.97
2017-05-30T00:27:56.927Z,72.06
2017-05-30T00:28:37.488Z,72.06
2017-05-30T00:29:18.040Z,72.06
2017-05-30T00:29:58.570Z,71.78
2017-05-30T00:30:39.143Z,71.78
2017-05-30T00:31:19.741Z,71.94
2017-05-30T00:32:00.393Z,71.88
2017-05-30T00:32:41.055Z,71.45
2017-05-30T00:33:21.691Z,71.64
2017-05-30T00:34:02.236Z,71.94
2017-05-30T00:34:42.800Z,71.58
2017-05-30T00:35:23.449Z,71.68
2017-05-30T00:36:03.958Z,71.64
2017-05-30T00:36:44.575Z,71.84
2017-05-30T00:37:25.164Z,71.68
2017-05-30T00:38:05.686Z,71.84
2017-05-30T00:38:46.271Z,71.84
2017-05-30T00:39:26.851Z,71.64
2017-05-30T00:40:07.381Z,71.64
2017-05-30T00:40:47.969Z,71.64
2017-05-30T00:41:28.561Z,71.94
2017-05-30T00:42:09.161Z,71.64
2017-05-30T00:42:49.700Z,71.55
2017-05-30T00:55:38.062Z,72.96
2017-05-30T00:56:18.629Z,73.28
2017-05-30T00:56:59.295Z,73.35
2017-05-30T00:57:39.962Z,73.63
2017-05-30T00:58:20.634Z,73.54
2017-05-30T00:59:01.211Z,73.63
2017-05-30T00:59:41.834Z,73.83
2017-05-30T01:00:22.397Z,73.73
2017-05-30T01:01:02.969Z,73.73
2017-05-30T01:01:43.610Z,73.83
2017-05-30T01:02:25.179Z,74.31
2017-05-30T01:03:05.814Z,74.31
2017-05-30T01:03:46.411Z,74.12
2017-05-30T01:04:27.041Z,74.51
2017-05-30T01:05:07.669Z,74.51
2017-05-30T01:05:48.217Z,74.6
2017-05-30T01:06:28.817Z,74.89
2017-05-30T01:07:09.411Z,74.79
2017-05-30T01:07:49.933Z,74.69
2017-05-30T01:08:30.535Z,74.79
2017-05-30T01:09:11.132Z,75.18
2017-05-30T01:09:51.715Z,75.09
2017-05-30T01:10:32.242Z,74.99
2017-05-30T01:11:12.842Z,76.05
2017-05-30T01:11:53.373Z,75.57
2017-05-30T01:12:33.979Z,75.57
2017-05-30T01:13:14.576Z,75.95
2017-05-30T01:13:55.099Z,75.67
2017-05-30T01:14:35.686Z,76.2
2017-05-30T01:15:16.284Z,76.01
2017-05-30T01:15:56.869Z,75.95
2017-05-30T01:16:37.423Z,75.92
2017-05-30T01:17:18.029Z,76.2
2017-05-30T01:17:58.589Z,75.92
2017-05-30T01:18:39.181Z,76.2
2017-05-30T01:19:19.715Z,76.01
2017-05-30T01:20:00.300Z,76.3
2017-05-30T01:20:40.894Z,76.59
2017-05-30T01:21:21.484Z,76.5
2017-05-30T01:22:03.306Z,76.5
2017-05-30T01:22:43.941Z,76.59
2017-05-30T01:23:24.525Z,76.5
2017-05-30T01:24:05.121Z,76.59
2017-05-30T01:24:45.638Z,76.2
2017-05-30T01:25:26.258Z,76.78
2017-05-30T01:26:06.874Z,76.68
2017-05-30T01:26:47.414Z,76.78
2017-05-30T01:27:27.943Z,76.88
2017-05-30T01:28:08.551Z,76.88
2017-05-30T01:28:49.070Z,77.07
2017-05-30T01:29:29.658Z,77.26
2017-05-30T01:30:11.201Z,76.88
2017-05-30T01:30:51.771Z,76.98
2017-05-30T01:31:32.291Z,76.78
2017-05-30T01:32:12.887Z,77.36
2017-05-30T01:32:54.469Z,77.17
2017-05-30T01:33:35.107Z,77.36
2017-05-30T01:34:15.614Z,76.98
2017-05-30T02:04:05.697Z,76.88
2017-05-30T02:04:46.335Z,76.88
2017-05-30T02:05:26.961Z,76.88
2017-05-30T02:06:07.464Z,76.68
2017-05-30T02:06:48.087Z,76.88
2017-05-30T02:07:28.675Z,76.88
2017-05-30T02:08:09.265Z,76.88
2017-05-30T02:08:49.775Z,76.78
2017-05-30T02:09:30.402Z,76.68
2017-05-30T02:10:10.992Z,76.59
2017-05-30T02:10:51.561Z,76.5
2017-05-30T02:11:32.086Z,76.59
2017-05-30T02:12:12.698Z,76.68
2017-05-30T02:12:53.238Z,76.68
2017-05-30T02:13:33.783Z,76.5
2017-05-30T02:14:14.389Z,76.5
2017-05-30T02:14:54.966Z,76.59
2017-05-30T02:15:35.500Z,76.59
2017-05-30T02:16:16.087Z,76.5
2017-05-30T02:16:57.718Z,76.5
2017-05-30T02:17:39.341Z,76.88
2017-05-30T02:18:19.904Z,76.88
2017-05-30T02:19:01.448Z,76.59
2017-05-30T02:19:42.067Z,76.68
2017-05-30T02:20:22.594Z,76.68
2017-05-30T02:21:03.294Z,76.68
2017-05-30T02:21:43.891Z,76.68
2017-05-30T02:22:24.550Z,76.59
2017-05-30T02:36:12.907Z,76.84
2017-05-30T02:36:53.582Z,76.84
2017-05-30T02:37:34.175Z,76.84
2017-05-30T02:38:14.702Z,77.03
2017-05-30T02:38:55.337Z,76.84
2017-05-30T02:39:35.925Z,76.75
2017-05-30T02:40:16.479Z,76.75
2017-05-30T03:18:06.168Z,76.65
2017-05-30T03:18:46.767Z,76.84
2017-05-30T03:19:27.315Z,76.84
2017-05-30T03:20:07.918Z,76.75
2017-05-30T03:20:48.436Z,76.84
2017-05-30T03:35:36.826Z,77.48
2017-05-30T03:36:17.470Z,77.58
2017-05-30T03:36:58.109Z,77.86
2017-05-30T03:37:38.683Z,77.76
2017-05-30T03:38:19.307Z,78.11
2017-05-30T03:38:59.900Z,78.25
2017-05-30T03:39:40.518Z,78.21
2017-05-30T03:40:21.086Z,78.02
2017-05-30T03:41:01.747Z,78.06
2017-05-30T03:41:42.403Z,78.06
2017-05-30T03:42:23.048Z,78.02
2017-05-30T03:43:03.682Z,77.92
2017-05-30T03:43:44.244Z,78.31
2017-05-30T03:44:25.908Z,78.21
2017-05-30T03:45:06.471Z,78.02
2017-05-30T03:45:47.140Z,77.92
2017-05-30T03:46:27.757Z,77.92
2017-05-30T03:47:08.292Z,78.4
2017-05-30T03:47:48.898Z,78.5
2017-05-30T03:48:29.535Z,78.5
2017-05-30T03:49:10.186Z,78.4
2017-05-30T03:49:50.862Z,78.4
2017-05-30T03:50:31.472Z,78.5
2017-05-30T03:51:12.015Z,78.88
2017-05-30T03:51:52.589Z,78.79
2017-05-30T03:52:33.156Z,78.88
2017-05-30T03:53:13.794Z,78.79
2017-05-30T03:53:54.431Z,78.79
2017-05-30T03:54:34.999Z,78.69
2017-05-30T03:55:15.553Z,78.69
2017-05-30T03:55:57.121Z,78.69
2017-05-30T03:56:37.720Z,78.85
2017-05-30T03:57:18.313Z,79.23
2017-05-30T03:57:58.843Z,78.88
2017-05-30T03:58:39.411Z,79.03
2017-05-30T03:59:20.024Z,79.56
2017-05-30T04:00:00.609Z,79.52
2017-05-30T04:00:41.156Z,79.43
2017-05-30T04:01:21.744Z,79.23
2017-05-30T04:02:03.309Z,79.03
2017-05-30T04:02:43.873Z,79.52
2017-05-30T04:03:24.551Z,79.23
2017-05-30T04:04:05.165Z,79.33
2017-05-30T04:04:45.733Z,79.33
2017-05-30T04:05:26.373Z,79.23
2017-05-30T04:06:07.018Z,79.33
2017-05-30T04:06:47.558Z,79.23
2017-05-30T04:07:28.114Z,79.33
2017-05-30T04:08:08.685Z,79.52
2017-05-30T04:08:49.220Z,79.23
2017-05-30T04:09:29.894Z,79.33
2017-05-30T04:10:10.534Z,79.33
2017-05-30T04:10:51.168Z,79.33
2017-05-30T04:11:31.748Z,79.23
2017-05-30T04:12:12.409Z,79.43
2017-05-30T04:12:53.042Z,79.43
2017-05-30T04:13:33.581Z,79.13
2017-05-30T04:14:14.145Z,79.23
2017-05-30T04:14:54.691Z,79.03
2017-05-30T04:15:35.243Z,79.43
2017-05-30T04:16:15.799Z,79.43
2017-05-30T04:16:56.369Z,79.52
2017-05-30T04:17:36.973Z,79.33
2017-05-30T04:18:17.485Z,79.43
2017-05-30T04:18:58.018Z,79.13
2017-05-30T04:19:38.646Z,79.43
2017-05-30T04:20:19.243Z,79.33
2017-05-30T04:20:59.823Z,79.61
2017-05-30T04:21:40.380Z,79.43
2017-05-30T04:22:20.918Z,79.61
2017-05-30T04:23:01.478Z,79.33
2017-05-30T04:23:42.021Z,79.43
2017-05-30T04:24:22.578Z,79.43
2017-05-30T04:25:03.134Z,79.52
2017-05-30T04:25:43.678Z,79.56
2017-05-30T04:26:24.217Z,79.46
2017-05-30T04:27:04.800Z,79.08
2017-05-30T04:27:45.397Z,79.08
2017-05-30T04:28:25.981Z,79.43
2017-05-30T04:29:06.508Z,79.36
2017-05-30T04:29:47.110Z,79.46
2017-05-30T04:30:27.658Z,79.36
2017-05-30T04:31:08.253Z,78.98
2017-05-30T04:31:48.799Z,78.88
2017-05-30T04:32:30.436Z,78.69
2017-05-30T04:33:10.967Z,78.69
2017-05-30T04:33:51.539Z,79.08
2017-05-30T04:34:33.136Z,78.21
2017-05-30T04:35:13.736Z,78.54
2017-05-30T04:35:54.287Z,78.25
2017-05-30T04:36:34.875Z,78.06
2017-05-30T04:37:16.442Z,77.96
2017-05-30T04:37:57.019Z,78.15
2017-05-30T04:38:37.641Z,78.06
2017-05-30T04:39:18.191Z,78.34
2017-05-30T04:39:58.753Z,78.15
2017-05-30T04:40:39.354Z,77.96
2017-05-30T04:41:19.947Z,77.67
2017-05-30T04:42:01.547Z,77.86
2017-05-30T04:52:15.193Z,77.76
2017-05-30T04:52:55.758Z,77.09
2017-05-30T04:53:36.379Z,77.48
2017-05-30T04:54:16.964Z,77.23
2017-05-30T04:55:03.037Z,77.51
2017-05-30T04:55:43.636Z,77.28
2017-05-30T04:56:24.234Z,77.33
2017-05-30T04:57:04.871Z,77.61
2017-05-30T04:57:45.451Z,77.13
2017-05-30T04:58:26.096Z,77.03
2017-05-30T04:59:06.721Z,77.33
2017-05-30T04:59:47.271Z,77
2017-05-30T05:00:27.842Z,77.13
2017-05-30T05:01:08.472Z,77.48
2017-05-30T05:01:49.034Z,77.28
2017-05-30T05:02:29.621Z,77.28
2017-05-30T05:03:10.285Z,77.28
2017-05-30T05:03:50.895Z,77.51
2017-05-30T05:04:31.437Z,77.48
2017-05-30T05:05:12.008Z,76.9
2017-05-30T05:05:52.594Z,76.71
2017-05-30T05:06:33.224Z,77.09
2017-05-30T05:07:13.743Z,77.19
2017-05-30T05:07:54.313Z,76.9
2017-05-30T05:08:34.896Z,76.9
2017-05-30T05:09:15.486Z,76.8
2017-05-30T05:09:56.024Z,77.19
2017-05-30T05:10:38.608Z,77.19
2017-05-30T05:11:19.204Z,76.55
2017-05-30T05:11:59.805Z,76.65
2017-05-30T05:12:40.336Z,76.84
2017-05-30T05:13:20.944Z,76.75
2017-05-30T05:14:01.554Z,76.8
2017-05-30T05:14:42.079Z,76.36
2017-05-30T05:15:22.623Z,76.75
2017-05-30T05:16:04.232Z,76.45
2017-05-30T05:16:44.760Z,76.26
2017-05-30T05:17:25.374Z,76.07
2017-05-30T05:18:05.988Z,75.97
2017-05-30T05:18:46.529Z,75.78
2017-05-30T05:19:27.153Z,75.72
2017-05-30T05:20:07.833Z,75.82
2017-05-30T05:20:48.375Z,75.34
2017-05-30T05:21:28.956Z,75.24
2017-05-30T05:22:09.493Z,75.43
2017-05-30T05:22:50.054Z,75.34
2017-05-30T05:23:30.621Z,74.66
2017-05-30T05:24:11.255Z,75.05
2017-05-30T05:24:52.821Z,74.76
2017-05-30T05:25:33.469Z,74.95
2017-05-30T05:26:13.984Z,74.18
2017-05-30T05:26:54.499Z,74.18
2017-05-30T05:27:35.069Z,74.02
2017-05-30T05:28:15.679Z,73.93
2017-05-30T05:28:56.190Z,73.63
2017-05-30T05:29:36.806Z,73.73
2017-05-30T05:30:17.434Z,73.54
2017-05-30T05:30:57.951Z,73.44
2017-05-30T05:31:38.569Z,73.25
2017-05-30T05:32:19.189Z,73.35
2017-05-30T05:32:59.796Z,73.15
2017-05-30T05:33:40.449Z,73.15
2017-05-30T05:34:21.065Z,73.63
2017-05-30T05:35:01.655Z,73.54
2017-05-30T05:35:42.256Z,73.35
2017-05-30T05:36:22.838Z,73.15
2017-05-30T05:37:03.404Z,73.11
2017-05-30T05:37:43.917Z,73.69
2017-05-30T05:38:24.468Z,73.63
2017-05-30T05:39:05.458Z,73.44
2017-05-30T05:39:46.091Z,73.44
2017-05-30T05:40:26.624Z,73.06
2017-05-30T05:41:07.164Z,73.06
2017-05-30T05:41:47.777Z,73.15
2017-05-30T05:42:28.330Z,73.25
2017-05-30T05:43:08.908Z,73.25
2017-05-30T05:43:49.434Z,73.25
2017-05-30T05:44:30.002Z,73.02
2017-05-30T05:45:10.618Z,72.86
2017-05-30T05:45:51.176Z,72.92
2017-05-30T05:46:31.749Z,73.02
2017-05-30T05:47:12.323Z,73.6
2017-05-30T05:47:52.844Z,73.02
2017-05-30T05:48:33.433Z,73.11
2017-05-30T05:49:14.036Z,73.31
2017-05-30T05:49:54.629Z,73.5
2017-05-30T05:50:35.175Z,73.5
2017-05-30T05:51:15.767Z,73.41
2017-05-30T05:51:56.326Z,73.02
2017-05-30T05:52:36.932Z,73.21
2017-05-30T05:53:17.492Z,73.31
2017-05-30T05:53:58.068Z,73.31
2017-05-30T05:54:38.667Z,72.83
2017-05-30T05:55:19.252Z,73.21
2017-05-30T05:55:59.779Z,73.21
2017-05-30T05:56:40.390Z,72.54
2017-05-30T05:57:20.982Z,72.83
2017-05-30T05:58:01.544Z,73.02
2017-05-30T05:58:42.085Z,72.34
2017-05-30T05:59:22.699Z,72.44
2017-05-30T06:00:03.263Z,72.44
2017-05-30T06:00:43.863Z,72.44
2017-05-30T06:01:24.384Z,72.54
2017-05-30T06:02:04.966Z,72.63
2017-05-30T06:02:45.551Z,72.54
2017-05-30T06:03:26.170Z,72.54
2017-05-30T06:04:06.763Z,72.15
2017-05-30T06:04:47.448Z,72.44
2017-05-30T06:05:28.030Z,71.9
2017-05-30T06:06:08.593Z,72
2017-05-30T06:06:49.127Z,72.09
2017-05-30T06:07:29.763Z,71.9
2017-05-30T06:08:10.299Z,71.32
2017-05-30T06:08:50.903Z,71.42
2017-05-30T06:09:31.432Z,71.12
2017-05-30T06:10:11.974Z,71.42
2017-05-30T06:10:52.555Z,70.84
2017-05-30T06:11:33.078Z,71.03
2017-05-30T06:12:13.633Z,70.84
2017-05-30T06:12:54.190Z,70.54
2017-05-30T06:13:34.833Z,70.94
2017-05-30T06:14:15.495Z,71.03
2017-05-30T06:14:56.037Z,71.22
2017-05-30T06:15:36.588Z,70.94
2017-05-30T06:16:17.134Z,71.03
2017-05-30T06:16:57.690Z,70.36
2017-05-30T06:17:38.248Z,70.45
2017-05-30T06:18:18.839Z,70.36
2017-05-30T06:18:59.457Z,70.45
2017-05-30T06:19:39.977Z,70.74
2017-05-30T06:20:20.581Z,70.74
2017-05-30T06:21:01.152Z,70.26
2017-05-30T06:21:41.749Z,70.58
2017-05-30T06:22:22.305Z,70.39
2017-05-30T06:23:02.947Z,70.2
2017-05-30T06:23:43.501Z,70.1
2017-05-30T06:24:24.064Z,69.23
2017-05-30T06:27:12.031Z,69.17
2017-05-30T06:27:52.681Z,68.88
2017-05-30T06:28:33.320Z,69.07
2017-05-30T06:29:13.975Z,69.17
2017-05-30T06:29:54.638Z,69.26
2017-05-30T06:30:35.301Z,68.98
2017-05-30T06:31:15.831Z,69.07
2017-05-30T06:31:56.399Z,69.17
2017-05-30T06:32:37.964Z,69.07
2017-05-30T06:33:19.551Z,69.23
2017-05-30T06:34:00.093Z,69.13
2017-05-30T06:34:40.626Z,68.94
2017-05-30T06:35:21.279Z,69.04
2017-05-30T06:36:01.840Z,69.13
2017-05-30T06:36:42.404Z,68.75
2017-05-30T06:37:23.035Z,69.07
2017-05-30T06:38:03.548Z,68.78
2017-05-30T06:38:44.159Z,68.68
2017-05-30T06:39:24.799Z,68.4
2017-05-30T06:40:05.345Z,68.59
2017-05-30T06:40:45.910Z,68.4
2017-05-30T06:41:26.554Z,68.3
2017-05-30T06:42:07.108Z,68.3
2017-05-30T06:42:47.668Z,68.3
2017-05-30T06:43:28.309Z,67.91
2017-05-30T06:44:08.860Z,68.01
2017-05-30T06:44:49.475Z,68.01
2017-05-30T06:45:30.094Z,68.3
2017-05-30T06:46:10.718Z,67.82
2017-05-30T06:46:51.300Z,67.62
2017-05-30T06:47:31.924Z,67.33
2017-05-30T06:48:12.441Z,68.1
2017-05-30T06:48:53.060Z,67.91
2017-05-30T06:49:33.673Z,68.1
2017-05-30T06:50:14.225Z,68.01
2017-05-30T06:50:54.787Z,67.91
2017-05-30T06:51:35.360Z,67.91
2017-05-30T06:52:15.982Z,68.2
2017-05-30T06:52:56.500Z,67.91
2017-05-30T06:53:37.116Z,67.72
2017-05-30T06:54:17.692Z,68.01
2017-05-30T06:54:58.284Z,67.75
2017-05-30T06:55:38.821Z,67.46
2017-05-30T06:56:19.405Z,67.08
2017-05-30T06:57:00.107Z,66.72
2017-05-30T06:57:40.747Z,66.91
2017-05-30T06:58:21.401Z,66.91
2017-05-30T06:59:04.150Z,66.91
2017-05-30T06:59:45.775Z,66.91
2017-05-30T07:00:26.330Z,66.91
2017-05-30T07:01:06.982Z,66.78
2017-05-30T07:01:48.548Z,66.78
2017-05-30T07:02:29.109Z,66.69
2017-05-30T07:03:09.776Z,66.88
2017-05-30T07:03:50.435Z,66.98
2017-05-30T07:06:06.330Z,66.69
2017-05-30T07:06:46.930Z,66.88
2017-05-30T07:07:27.584Z,66.98
2017-05-30T07:08:09.198Z,66.88
2017-05-30T07:08:49.725Z,66.78
2017-05-30T07:09:30.317Z,66.78
2017-05-30T07:10:10.899Z,66.59
2017-05-30T07:10:52.532Z,66.88
2017-05-30T07:11:33.095Z,66.43
2017-05-30T07:12:13.687Z,66.43
2017-05-30T07:12:54.338Z,66.63
2017-05-30T07:13:35.049Z,66.53
2017-05-30T07:14:26.270Z,66.82
2017-05-30T07:15:06.921Z,66.82
2017-05-30T07:15:47.592Z,66.72
2017-05-30T07:16:32.767Z,66.24
2017-05-30T07:17:17.854Z,66.24
2017-05-30T07:17:58.446Z,66.43
2017-05-30T07:18:41.087Z,66.2
2017-05-30T07:19:21.733Z,66.5
2017-05-30T07:20:02.395Z,66.69
2017-05-30T07:20:44.989Z,66.88
2017-05-30T07:21:25.587Z,66.69
2017-05-30T07:22:06.140Z,66.69
2017-05-30T07:22:46.795Z,66.78
2017-05-30T07:23:27.342Z,66.78
2017-05-30T07:24:07.963Z,66.69
2017-05-30T07:24:48.628Z,66.4
2017-05-30T07:25:29.166Z,66.5
2017-05-30T07:26:09.742Z,66.05
2017-05-30T07:26:50.396Z,65.85
2017-05-30T07:27:30.933Z,65.92
2017-05-30T07:28:12.520Z,65.92
2017-05-30T07:28:53.161Z,65.82
2017-05-30T07:29:34.146Z,65.92
2017-05-30T07:30:14.824Z,65.92
2017-05-30T07:30:55.445Z,65.92
2017-05-30T07:31:36.079Z,66.01
2017-05-30T07:32:16.575Z,66.4
2017-05-30T07:32:58.142Z,66.75
2017-05-30T07:33:38.690Z,66.66
2017-05-30T07:34:20.326Z,66.46
2017-05-30T07:35:00.928Z,66.88
2017-05-30T07:35:41.681Z,66.85
2017-05-30T07:36:22.345Z,66.85
2017-05-30T07:37:02.985Z,66.66
2017-05-30T07:37:43.714Z,66.46
2017-05-30T07:38:24.267Z,66.75
2017-05-30T07:39:04.865Z,66.94
2017-05-30T07:39:45.514Z,66.75
2017-05-30T07:40:26.146Z,66.94
2017-05-30T07:41:06.822Z,67.24
2017-05-30T07:41:47.404Z,66.85
2017-05-30T07:42:28.010Z,66.66
2017-05-30T07:43:08.700Z,66.66
2017-05-30T07:43:49.224Z,66.75
2017-05-30T07:44:29.875Z,66.75
2017-05-30T07:45:10.477Z,66.27
2017-05-30T07:45:50.978Z,66.3
2017-05-30T07:46:31.528Z,66.3
2017-05-30T07:47:12.051Z,66.2
2017-05-30T07:47:52.703Z,66.5
2017-05-30T07:48:33.316Z,66.5
2017-05-30T07:49:13.816Z,65.72
2017-05-30T07:49:54.373Z,66.11
2017-05-30T07:50:35.039Z,65.92
2017-05-30T07:51:15.600Z,65.92
2017-05-30T07:51:56.176Z,65.82
2017-05-30T07:52:36.714Z,65.82
2017-05-30T07:53:17.401Z,66.5
2017-05-30T07:53:57.978Z,65.92
2017-05-30T07:54:38.583Z,66.11
2017-05-30T07:55:19.198Z,65.92
2017-05-30T07:55:59.775Z,65.92
2017-05-30T07:56:40.330Z,65.92
2017-05-30T07:57:20.849Z,65.92
2017-05-30T07:58:01.432Z,65.92
2017-05-30T07:58:41.952Z,66.11
2017-05-30T07:59:22.566Z,65.82
2017-05-30T08:00:04.164Z,66.11
2017-05-30T08:00:44.755Z,66.11
2017-05-30T08:01:25.276Z,65.92
2017-05-30T08:02:05.878Z,66.01
2017-05-30T08:02:46.434Z,65.63
2017-05-30T08:03:26.992Z,65.43
2017-05-30T08:04:07.705Z,65.72
2017-05-30T08:04:48.290Z,65.82
2017-05-30T08:05:28.821Z,65.43
2017-05-30T08:06:09.393Z,65.43
2017-05-30T08:06:49.984Z,64.95
2017-05-30T08:07:30.617Z,65.66
2017-05-30T08:08:11.251Z,64.76
2017-05-30T08:08:51.810Z,64.89
2017-05-30T08:09:32.439Z,65.24
2017-05-30T08:10:13.020Z,64.56
2017-05-30T08:10:53.652Z,64.76
2017-05-30T08:11:34.208Z,64.69
2017-05-30T08:12:14.751Z,64.79
2017-05-30T08:12:55.327Z,64.79
2017-05-30T08:13:35.883Z,64.5
2017-05-30T08:14:16.407Z,64.31
2017-05-30T08:14:57.000Z,64.5
2017-05-30T08:15:37.549Z,64.4
2017-05-30T08:16:18.099Z,64.5
2017-05-30T08:16:58.648Z,64.21
2017-05-30T08:17:39.306Z,64.31
2017-05-30T08:18:19.832Z,64.69
2017-05-30T08:19:00.400Z,64.5
2017-05-30T08:19:40.915Z,64.11
2017-05-30T08:20:21.612Z,64.21
2017-05-30T08:21:02.122Z,63.92
2017-05-30T08:21:42.664Z,64.01
2017-05-30T08:22:23.259Z,64.14
2017-05-30T08:23:03.872Z,64.04
2017-05-30T08:23:44.401Z,63.95
2017-05-30T08:24:24.930Z,63.56
2017-05-30T08:25:05.522Z,63.56
2017-05-30T08:25:46.095Z,63.18
2017-05-30T08:26:28.054Z,62.98
2017-05-30T08:27:08.627Z,63.31
2017-05-30T08:27:49.208Z,63.11
2017-05-30T08:28:29.733Z,62.92
2017-05-30T08:29:10.264Z,63.11
2017-05-30T08:29:50.926Z,62.63
2017-05-30T08:30:31.432Z,62.72
2017-05-30T08:31:13.023Z,62.43
2017-05-30T08:31:53.572Z,62.72
2017-05-30T08:32:34.206Z,62.53
2017-05-30T08:33:14.729Z,62.82
2017-05-30T08:33:55.287Z,62.34
2017-05-30T08:34:35.871Z,62.43
2017-05-30T08:35:16.444Z,62.43
2017-05-30T08:35:56.990Z,62.34
2017-05-30T08:36:37.564Z,62.34
2017-05-30T09:43:28.609Z,56.47
2017-05-30T09:44:09.125Z,56.18
2017-05-30T09:44:49.711Z,55.99
2017-05-30T09:45:31.328Z,56.18
2017-05-30T09:46:11.905Z,56.47
2017-05-30T09:46:52.444Z,56.76
2017-05-30T09:47:34.053Z,56.86
2017-05-30T09:48:14.659Z,56.67
2017-05-30T09:48:55.191Z,56.96
2017-05-30T09:49:35.772Z,56.96
2017-05-30T09:50:16.360Z,56.18
2017-05-30T09:50:56.952Z,56.18
2017-05-30T09:51:37.485Z,55.82
2017-05-30T09:52:18.096Z,56.11
2017-05-30T09:52:58.728Z,55.63
2017-05-30T09:53:39.273Z,55.46
2017-05-30T09:54:19.872Z,55.27
2017-05-30T09:55:00.453Z,54.58
2017-05-30T09:55:41.064Z,54.32
2017-05-30T09:56:21.710Z,54.42
2017-05-30T09:57:02.227Z,53.83
2017-05-30T09:57:42.847Z,54.13
2017-05-30T09:58:23.446Z,53.64
2017-05-30T09:59:04.023Z,53.74
2017-05-30T09:59:44.551Z,53.35
2017-05-30T10:00:25.204Z,53.54
2017-05-30T10:01:05.933Z,53.54
2017-05-30T10:01:46.483Z,53.35
2017-05-30T10:02:27.128Z,53.35
2017-05-30T10:03:07.694Z,53.64
2017-05-30T10:03:48.309Z,53.64
2017-05-30T10:04:28.849Z,53.54
2017-05-30T10:05:09.466Z,53.45
2017-05-30T10:05:50.029Z,52.96
2017-05-30T10:06:30.580Z,52.79
2017-05-30T10:07:11.129Z,53.16
2017-05-30T10:07:51.719Z,53.18
2017-05-30T10:08:32.257Z,52.86
2017-05-30T10:09:12.821Z,52.98
2017-05-30T10:09:53.366Z,52.76
2017-05-30T10:10:33.906Z,53.25
2017-05-30T10:11:14.494Z,53.64
2017-05-30T10:11:55.127Z,53.54
2017-05-30T10:12:35.744Z,53.83
2017-05-30T10:13:16.305Z,53.81
2017-05-30T10:13:56.823Z,53.81
2017-05-30T10:14:37.592Z,53.71
2017-05-30T10:15:18.127Z,53.91
2017-05-30T10:15:58.703Z,53.91
2017-05-30T10:16:39.243Z,54.29
2017-05-30T10:17:19.853Z,54.2
2017-05-30T10:18:00.391Z,54.27
2017-05-30T10:18:40.924Z,54.58
2017-05-30T10:19:21.477Z,54.29
2017-05-30T10:20:02.031Z,54.29
2017-05-30T10:20:42.591Z,54.49
2017-05-30T10:21:23.151Z,54.49
2017-05-30T10:22:03.727Z,54.17
2017-05-30T10:22:44.272Z,54.07
2017-05-30T10:23:24.827Z,54.66
2017-05-30T10:24:05.399Z,54.46
2017-05-30T10:24:46.044Z,54.27
2017-05-30T10:25:26.737Z,54.27
2017-05-30T10:26:07.344Z,54.07
2017-05-30T10:26:47.893Z,54.36
2017-05-30T10:27:28.450Z,54.46
2017-05-30T10:28:09.101Z,54.46
2017-05-30T10:28:49.815Z,54.46
2017-05-30T10:29:30.421Z,54.56
2017-05-30T10:30:11.061Z,54.17
2017-05-30T10:30:51.650Z,54.66
2017-05-30T10:31:32.211Z,54.56
2017-05-30T10:32:12.869Z,55.33
2017-05-30T10:32:53.426Z,55.04
2017-05-30T10:33:34.034Z,55.24
2017-05-30T10:34:14.722Z,55.04
2017-05-30T10:34:55.244Z,54.66
2017-05-30T10:35:35.906Z,54.46
2017-05-30T10:36:16.510Z,54.46
2017-05-30T10:36:57.125Z,54.36
2017-05-30T10:37:37.651Z,54.27
2017-05-30T10:38:18.264Z,54.27
2017-05-30T10:38:58.836Z,54.46
2017-05-30T10:39:39.473Z,54.66
2017-05-30T10:40:19.973Z,54.27
2017-05-30T10:41:00.562Z,54.07
2017-05-30T10:41:41.179Z,54.36
2017-05-30T10:42:21.704Z,54.17
2017-05-30T10:43:04.339Z,54.27
2017-05-30T10:43:44.834Z,54.46
2017-05-30T10:44:25.441Z,53.97
2017-05-30T10:45:06.105Z,54.07
2017-05-30T10:45:46.674Z,53.69
2017-05-30T10:46:27.195Z,53
2017-05-30T10:47:07.746Z,53
2017-05-30T10:47:48.321Z,52.72
2017-05-30T10:48:28.851Z,53.39
2017-05-30T10:49:09.532Z,52.81
2017-05-30T10:49:50.094Z,53
2017-05-30T10:50:30.699Z,52.42
2017-05-30T10:51:11.276Z,52.42
2017-05-30T10:51:51.828Z,52.42
2017-05-30T10:52:32.387Z,52.72
2017-05-30T10:53:12.938Z,52.55
2017-05-30T10:53:53.524Z,52.25
2017-05-30T10:54:34.074Z,51.97
2017-05-30T10:55:14.710Z,52.09
2017-05-30T10:55:55.301Z,51.6
2017-05-30T10:56:36.906Z,50.82
2017-05-30T10:57:17.471Z,51.21
2017-05-30T10:57:58.130Z,50.82
2017-05-30T10:58:38.686Z,50.82
2017-05-30T10:59:19.255Z,50.63
2017-05-30T10:59:59.804Z,51.01
2017-05-30T11:00:40.387Z,50.26
2017-05-30T11:01:21.012Z,50.16
2017-05-30T11:11:10.303Z,50.36
2017-05-30T11:11:50.967Z,51.01
2017-05-30T11:12:31.571Z,51.31
2017-05-30T11:13:12.264Z,51.99
2017-05-30T11:13:52.909Z,51.97
2017-05-30T11:14:33.614Z,52.62
2017-05-30T11:15:14.198Z,52.81
2017-05-30T11:15:54.890Z,53
2017-05-30T11:16:35.414Z,53.3
2017-05-30T11:17:16.098Z,53.69
2017-05-30T11:17:57.656Z,53.39
2017-05-30T11:18:38.205Z,53.59
2017-05-30T11:19:18.870Z,53.2
2017-05-30T11:19:59.438Z,53.59
2017-05-30T11:20:40.002Z,53.3
2017-05-30T11:21:20.509Z,54.07
2017-05-30T11:22:01.109Z,53.66
2017-05-30T11:22:41.761Z,54.34
2017-05-30T11:23:22.336Z,54.53
2017-05-30T11:24:02.887Z,54.41
2017-05-30T11:24:43.484Z,55.18
2017-05-30T11:25:24.023Z,54.99
2017-05-30T11:26:04.584Z,54.9
2017-05-30T11:26:45.168Z,54.9
2017-05-30T11:27:25.721Z,55.18
2017-05-30T11:28:06.374Z,54.99
2017-05-30T11:28:47.021Z,54.9
2017-05-30T11:29:27.620Z,54.9
2017-05-30T11:30:08.150Z,55.28
2017-05-30T11:30:49.762Z,54.99
2017-05-30T11:31:30.309Z,55.08
2017-05-30T11:32:11.995Z,54.8
2017-05-30T11:32:52.613Z,55.08
2017-05-30T11:33:33.131Z,54.8
2017-05-30T11:34:13.780Z,54.5
2017-05-30T11:34:54.400Z,54.11
2017-05-30T11:35:35.017Z,54.34
2017-05-30T11:36:15.640Z,53.75
2017-05-30T11:36:56.263Z,53.95
2017-05-30T11:37:36.862Z,53.56
2017-05-30T11:38:17.390Z,53.17
2017-05-30T11:38:57.945Z,52.69
2017-05-30T11:39:38.526Z,52.69
2017-05-30T11:40:19.214Z,52.88
2017-05-30T11:41:00.235Z,52.52
2017-05-30T11:41:40.818Z,52.62
2017-05-30T11:42:21.414Z,52.13
2017-05-30T11:43:01.971Z,52.03
2017-05-30T11:43:42.512Z,51.48
2017-05-30T11:44:23.133Z,51.48
2017-05-30T11:45:03.673Z,51.18
2017-05-30T11:45:45.329Z,50.89
2017-05-30T11:46:25.915Z,50.99
2017-05-30T11:47:06.573Z,50.89
2017-05-30T11:47:47.104Z,51.38
2017-05-30T11:48:27.629Z,50.99
2017-05-30T11:49:08.268Z,51.48
2017-05-30T11:49:48.882Z,51.75
2017-05-30T11:50:29.428Z,51.55
2017-05-30T11:51:10.030Z,52.33
2017-05-30T11:51:50.515Z,54.24
2017-05-30T11:52:31.056Z,57.12
2017-05-30T11:53:11.632Z,59.59
2017-05-30T11:53:53.273Z,61.59
2017-05-30T11:54:35.841Z,62.92
2017-05-30T11:55:16.384Z,64.14
2017-05-30T11:55:56.964Z,65.37
2017-05-30T11:56:43.464Z,66.69
2017-05-30T11:57:25.179Z,67.36
2017-05-30T11:58:05.767Z,68.2
2017-05-30T11:58:46.422Z,69.17
2017-05-30T11:59:27.110Z,69.62
2017-05-30T12:00:08.776Z,70.2
2017-05-30T12:00:49.455Z,70.74
2017-05-30T12:01:30.073Z,70.74
2017-05-30T12:02:10.697Z,71.12
2017-05-30T12:02:51.282Z,71.7
2017-05-30T12:03:31.793Z,72
2017-05-30T12:04:12.442Z,71.8
2017-05-30T12:04:53.068Z,72.19
2017-05-30T12:05:33.637Z,72.58
2017-05-30T12:06:14.316Z,72.77
2017-05-30T12:06:54.952Z,73.06
2017-05-30T12:07:35.609Z,73.06
2017-05-30T12:08:16.241Z,73.25
2017-05-30T12:08:56.829Z,73.28
2017-05-30T12:09:37.388Z,73.48
2017-05-30T12:10:17.938Z,73.48
2017-05-30T12:10:58.440Z,73.38
2017-05-30T12:11:40.119Z,73.38
2017-05-30T12:12:20.630Z,73.38
2017-05-30T12:13:02.191Z,73.52
2017-05-30T12:13:42.723Z,73.13
2017-05-30T12:14:23.347Z,73.13
2017-05-30T12:15:03.913Z,72.45
2017-05-30T12:15:44.441Z,72.68
2017-05-30T12:16:25.095Z,72.3
2017-05-30T12:17:05.614Z,72.2
2017-05-30T12:17:46.227Z,72.2
2017-05-30T12:18:26.786Z,72.14